Time;durP1;ratioP1;P1;durP2;ratioP2;P2;SDS_P1;SDS_P2;PMS_P1;PMS_P2;Temp;Humidity;BMP_temperature;BMP_pressure;BME280_temperature;BME280_humidity;BME280_pressure;Samples;Min_cycle;Max_cycle;Signal;HPM_P1;HPM_P2
2022/11/13 00:02:06;;;;;;;12.30;8.50;;;;;;;9.26;100.00;96017.09;5019944;28;20193;-75
2022/11/13 00:04:32;;;;;;;11.80;8.13;;;;;;;9.26;100.00;96010.13;5020939;28;20228;-76
2022/11/13 00:07:02;;;;;;;11.50;8.17;;;;;;;9.35;100.00;96013.47;5014931;28;20202;-76
2022/11/13 00:09:28;;;;;;;13.60;9.43;;;;;;;9.26;100.00;96011.91;5020491;28;20194;-78
2022/11/13 00:11:56;;;;;;;15.33;9.80;;;;;;;9.31;100.00;96010.41;5022268;28;20203;-76
2022/11/13 00:14:30;;;;;;;16.50;10.80;;;;;;;9.42;100.00;96006.56;5021469;28;20313;-77
2022/11/13 00:17:01;;;;;;;14.10;9.30;;;;;;;9.47;100.00;96018.03;5026787;28;20206;-76
2022/11/13 00:19:27;;;;;;;14.20;9.60;;;;;;;9.33;100.00;95994.66;5017880;28;20199;-79
2022/11/13 00:21:55;;;;;;;14.30;9.30;;;;;;;9.48;100.00;96013.66;5018051;28;20203;-78
2022/11/13 00:24:22;;;;;;;15.93;10.00;;;;;;;9.45;100.00;95993.25;5031109;28;20221;-76
2022/11/13 00:26:49;;;;;;;14.43;9.63;;;;;;;9.44;100.00;95995.03;5019902;28;20206;-77
2022/11/13 00:29:16;;;;;;;12.10;8.80;;;;;;;9.44;100.00;95992.44;5020796;28;20574;-78
2022/11/13 00:31:44;;;;;;;13.13;8.73;;;;;;;9.34;100.00;96001.47;5025104;28;20206;-77
2022/11/13 00:34:10;;;;;;;13.53;9.00;;;;;;;9.43;100.00;96008.19;5023910;28;20202;-79
2022/11/13 00:36:37;;;;;;;17.90;9.70;;;;;;;9.51;100.00;96001.13;5024431;28;20204;-77
2022/11/13 00:39:04;;;;;;;12.70;9.00;;;;;;;9.58;100.00;96001.22;5020486;28;20202;-77
2022/11/13 00:41:31;;;;;;;13.63;9.40;;;;;;;9.54;100.00;96002.56;5022517;28;20205;-78
2022/11/13 00:43:58;;;;;;;13.23;8.73;;;;;;;9.58;100.00;96004.59;5024052;28;20229;-78
2022/11/13 00:46:24;;;;;;;13.80;9.20;;;;;;;9.66;100.00;96007.13;5019936;28;20261;-77
2022/11/13 00:48:53;;;;;;;15.43;8.57;;;;;;;9.62;100.00;96002.47;5024495;28;20204;-77
2022/11/13 00:51:19;;;;;;;14.33;8.90;;;;;;;9.68;100.00;96001.75;5024515;28;20203;-78
2022/11/13 00:53:46;;;;;;;14.33;9.20;;;;;;;9.66;100.00;96007.13;5021131;28;20206;-79
2022/11/13 00:56:13;;;;;;;13.37;9.33;;;;;;;9.76;100.00;96003.44;5021082;28;20194;-79
2022/11/13 00:58:40;;;;;;;13.47;9.00;;;;;;;9.78;100.00;95999.72;5015597;28;20282;-77
2022/11/13 01:01:09;;;;;;;13.47;9.23;;;;;;;9.79;100.00;96000.50;5020273;28;20199;-78
2022/11/13 01:03:36;;;;;;;14.50;9.07;;;;;;;9.65;100.00;95997.72;5022469;28;20225;-77
2022/11/13 01:06:12;;;;;;;16.07;10.07;;;;;;;9.66;100.00;95994.16;5021507;28;20223;-78
2022/11/13 01:08:39;;;;;;;16.57;9.00;;;;;;;9.55;100.00;95994.56;5019406;28;20202;-78
2022/11/13 01:11:11;;;;;;;15.13;9.27;;;;;;;9.55;100.00;95989.38;5023873;28;20248;-78
2022/11/13 01:13:38;;;;;;;13.97;9.03;;;;;;;9.58;100.00;95994.22;5020570;28;20209;-78
2022/11/13 01:16:06;;;;;;;15.03;9.53;;;;;;;9.57;100.00;95995.22;5022437;28;20187;-78
2022/11/13 01:18:34;;;;;;;13.90;9.40;;;;;;;9.50;100.00;95996.09;5021842;28;20887;-78
2022/11/13 01:21:05;;;;;;;15.60;9.53;;;;;;;9.47;100.00;95996.44;5019657;28;20281;-79
2022/11/13 01:23:34;;;;;;;14.80;10.27;;;;;;;9.27;100.00;95992.75;5021961;28;20285;-78
2022/11/13 01:26:09;;;;;;;18.73;9.67;;;;;;;9.27;100.00;95985.78;5022336;28;20623;-78
2022/11/13 01:28:35;;;;;;;15.73;9.00;;;;;;;9.34;100.00;95991.09;5019504;28;20195;-79
2022/11/13 01:31:05;;;;;;;14.03;9.73;;;;;;;9.38;100.00;95981.97;5018628;28;20198;-78
2022/11/13 01:33:32;;;;;;;22.13;10.07;;;;;;;9.39;100.00;95986.97;5022577;28;20530;-78
2022/11/13 01:36:02;;;;;;;17.23;9.43;;;;;;;9.45;100.00;95985.44;5017092;28;20257;-79
2022/11/13 01:38:29;;;;;;;15.90;10.23;;;;;;;9.42;100.00;95980.63;5024226;28;20195;-77
2022/11/13 01:40:58;;;;;;;15.23;10.17;;;;;;;9.43;100.00;95982.25;5022660;28;20200;-78
2022/11/13 01:43:27;;;;;;;14.77;10.43;;;;;;;9.39;100.00;95968.81;5021675;28;20214;-78
2022/11/13 01:46:18;;;;;;;13.00;9.10;;;;;;;9.42;100.00;95973.66;5021071;28;20206;-77
2022/11/13 01:48:48;;;;;;;13.20;9.37;;;;;;;9.52;100.00;95960.41;5020467;28;20203;-79
2022/11/13 01:51:18;;;;;;;15.33;9.90;;;;;;;9.57;100.00;95971.88;5019161;28;20290;-79
2022/11/13 01:53:47;;;;;;;15.90;9.80;;;;;;;9.56;100.00;95966.84;5020462;28;20874;-77
2022/11/13 01:56:17;;;;;;;13.23;9.33;;;;;;;9.43;100.00;95954.50;5022841;28;20206;-78
2022/11/13 01:58:48;;;;;;;13.93;10.00;;;;;;;9.53;100.00;95959.41;5021081;28;20659;-77
2022/11/13 02:01:15;;;;;;;16.77;11.27;;;;;;;9.62;100.00;95961.75;5020156;28;20183;-78
2022/11/13 02:03:42;;;;;;;16.83;9.60;;;;;;;9.63;100.00;95959.97;5022173;28;20231;-79
2022/11/13 02:06:09;;;;;;;13.30;9.33;;;;;;;9.64;100.00;95974.53;5020290;28;20701;-78
2022/11/13 02:08:36;;;;;;;15.90;9.67;;;;;;;9.64;100.00;95977.13;5021313;28;20218;-77
2022/11/13 02:11:03;;;;;;;13.10;9.83;;;;;;;9.63;100.00;95967.75;5022580;28;20634;-77
2022/11/13 02:13:32;;;;;;;16.83;10.30;;;;;;;9.65;100.00;95973.56;5019777;28;20191;-77
2022/11/13 02:15:59;;;;;;;14.13;9.43;;;;;;;9.63;100.00;95968.56;5023878;28;20238;-77
2022/11/13 02:18:29;;;;;;;14.60;9.37;;;;;;;9.75;100.00;95976.69;5019103;28;20205;-77
2022/11/13 02:21:04;;;;;;;15.07;10.03;;;;;;;9.78;100.00;95971.16;5018272;28;20199;-77
2022/11/13 02:23:38;;;;;;;14.10;9.53;;;;;;;9.75;100.00;95971.50;5022389;28;20202;-77
2022/11/13 02:26:08;;;;;;;14.70;9.43;;;;;;;9.74;100.00;95967.28;5024664;28;20190;-78
2022/11/13 02:28:35;;;;;;;13.47;9.20;;;;;;;9.72;100.00;95965.88;5018764;28;20200;-77
2022/11/13 02:31:07;;;;;;;13.87;8.67;;;;;;;9.75;100.00;95961.13;5017021;28;20195;-77
2022/11/13 02:33:34;;;;;;;14.37;9.30;;;;;;;9.80;100.00;95973.56;5020234;28;20265;-77
2022/11/13 02:36:01;;;;;;;14.03;8.77;;;;;;;9.80;100.00;95963.97;5019841;28;20206;-78
2022/11/13 02:38:28;;;;;;;13.93;8.57;;;;;;;9.88;100.00;95958.69;5019628;28;20194;-77
2022/11/13 02:40:55;;;;;;;13.63;8.77;;;;;;;9.81;100.00;95965.59;5019806;28;20272;-78
2022/11/13 02:43:23;;;;;;;14.10;8.10;;;;;;;9.74;100.00;95953.50;5019279;28;20200;-77
2022/11/13 02:45:50;;;;;;;13.47;9.07;;;;;;;9.85;100.00;95960.84;5020382;28;20586;-77
2022/11/13 02:48:16;;;;;;;12.70;8.13;;;;;;;9.80;100.00;95961.38;5018299;28;20204;-78
2022/11/13 02:50:43;;;;;;;12.47;8.60;;;;;;;9.81;100.00;95957.81;5019722;28;20210;-77
2022/11/13 02:53:10;;;;;;;14.27;8.83;;;;;;;9.81;100.00;95965.59;5018001;28;20198;-76
2022/11/13 02:55:37;;;;;;;12.77;9.20;;;;;;;9.90;100.00;95959.28;5017048;28;20214;-77
2022/11/13 02:58:04;;;;;;;13.50;9.00;;;;;;;9.88;100.00;95966.47;5023862;28;20202;-77
2022/11/13 03:00:32;;;;;;;14.63;9.27;;;;;;;9.89;100.00;95955.13;5023348;28;20777;-77
2022/11/13 03:02:59;;;;;;;13.70;9.13;;;;;;;9.95;100.00;95966.56;5021669;28;20207;-77
2022/11/13 03:05:26;;;;;;;14.57;9.33;;;;;;;9.93;100.00;95960.72;5019461;28;21573;-77
2022/11/13 03:07:52;;;;;;;13.57;9.30;;;;;;;9.90;100.00;95968.91;5019723;28;20211;-78
2022/11/13 03:10:19;;;;;;;12.70;8.70;;;;;;;9.94;100.00;95964.94;5020315;28;20628;-78
2022/11/13 03:12:46;;;;;;;14.27;9.33;;;;;;;9.89;100.00;95957.72;5016867;28;20219;-78
2022/11/13 03:15:13;;;;;;;12.03;8.97;;;;;;;9.75;100.00;95960.31;5018176;28;20253;-77
2022/11/13 03:17:41;;;;;;;14.40;9.50;;;;;;;9.76;100.00;95962.72;5018758;28;20203;-76
2022/11/13 03:20:09;;;;;;;14.70;9.80;;;;;;;9.84;100.00;95965.22;5018569;28;20289;-77
2022/11/13 03:22:35;;;;;;;14.00;9.60;;;;;;;9.82;100.00;95963.78;5018004;28;20192;-77
2022/11/13 03:25:02;;;;;;;14.43;9.60;;;;;;;9.86;100.00;95965.84;5021888;28;20223;-77
2022/11/13 03:27:31;;;;;;;13.70;9.70;;;;;;;9.87;100.00;95967.44;5020924;28;20210;-77
2022/11/13 03:29:57;;;;;;;14.03;9.90;;;;;;;9.88;100.00;95960.47;5020894;28;20302;-77
2022/11/13 03:32:24;;;;;;;16.50;9.97;;;;;;;9.88;100.00;95965.66;5021381;28;20207;-78
2022/11/13 03:34:52;;;;;;;12.90;9.13;;;;;;;9.88;100.00;95960.47;5017048;28;20191;-78
2022/11/13 03:37:19;;;;;;;15.10;9.40;;;;;;;9.98;100.00;95972.22;5021271;28;20658;-79
2022/11/13 03:39:46;;;;;;;12.57;9.60;;;;;;;9.96;100.00;95971.56;5021849;28;20198;-79
2022/11/13 03:42:13;;;;;;;14.57;9.70;;;;;;;9.94;100.00;95975.34;5021069;28;20199;-78
2022/11/13 03:44:39;;;;;;;12.33;9.03;;;;;;;9.93;100.00;95969.31;5019333;28;20234;-78
2022/11/13 03:47:06;;;;;;;14.43;9.47;;;;;;;9.98;100.00;95974.00;5020588;28;20347;-78
2022/11/13 03:49:33;;;;;;;15.30;9.73;;;;;;;9.94;100.00;95970.94;5019791;28;20200;-79
2022/11/13 03:52:01;;;;;;;16.93;9.67;;;;;;;9.92;100.00;95975.53;5022062;28;20538;-79
2022/11/13 03:54:28;;;;;;;13.53;9.67;;;;;;;9.99;100.00;95976.41;5023912;28;21063;-80
2022/11/13 03:56:55;;;;;;;11.73;8.77;;;;;;;10.07;100.00;95978.88;5029729;28;20213;-83
2022/11/13 03:59:22;;;;;;;15.50;9.70;;;;;;;10.04;100.00;95976.66;5040578;28;20669;-83
2022/11/13 04:01:48;;;;;;;13.93;9.77;;;;;;;10.08;100.00;95980.50;5039338;28;20198;-82
2022/11/13 04:04:15;;;;;;;14.53;9.47;;;;;;;10.06;100.00;95985.09;5027315;28;20231;-82
2022/11/13 04:06:42;;;;;;;14.07;9.97;;;;;;;10.07;100.00;95981.47;5042804;28;20198;-83
2022/11/13 04:09:11;;;;;;;14.73;9.10;;;;;;;10.12;100.00;95970.56;5043776;28;20225;-81
2022/11/13 04:11:37;;;;;;;15.17;9.80;;;;;;;10.09;100.00;95979.53;5035426;28;20739;-82
2022/11/13 04:14:04;;;;;;;13.50;9.17;;;;;;;10.14;100.00;95977.22;5018214;28;20253;-82
2022/11/13 04:16:31;;;;;;;13.67;9.30;;;;;;;10.16;100.00;95977.81;5029236;28;20198;-83
2022/11/13 04:18:58;;;;;;;14.07;9.27;;;;;;;10.10;100.00;95975.16;5033520;28;20214;-83
2022/11/13 04:21:26;;;;;;;13.90;9.43;;;;;;;10.08;100.00;95970.13;5031395;28;20201;-82
2022/11/13 04:23:53;;;;;;;13.33;9.57;;;;;;;10.10;100.00;95972.53;5046045;28;20209;-83
2022/11/13 04:26:21;;;;;;;12.97;9.67;;;;;;;10.13;100.00;95962.59;5034148;28;20728;-83
2022/11/13 04:28:48;;;;;;;14.30;9.23;;;;;;;10.01;100.00;95965.84;5036973;28;20198;-82
2022/11/13 04:31:15;;;;;;;13.90;9.63;;;;;;;10.03;100.00;95975.06;5033695;28;20211;-83
2022/11/13 04:33:41;;;;;;;13.73;9.53;;;;;;;10.05;100.00;95972.25;5034255;28;20628;-82
2022/11/13 04:36:09;;;;;;;14.97;9.73;;;;;;;10.00;100.00;95972.00;5036848;28;20199;-82
2022/11/13 04:38:35;;;;;;;13.87;10.03;;;;;;;10.08;100.00;95975.31;5048497;28;20209;-82
2022/11/13 04:43:47;;;;;;;18.23;10.60;;;;;;;10.11;100.00;95974.94;5037729;28;20220;-84
2022/11/13 04:46:14;;;;;;;17.10;11.13;;;;;;;10.09;100.00;95963.13;5048590;28;20233;-84
2022/11/13 04:48:41;;;;;;;20.10;11.50;;;;;;;10.08;100.00;95967.53;5024604;28;20721;-79
2022/11/13 04:51:08;;;;;;;19.00;12.60;;;;;;;10.09;100.00;95968.31;5016751;28;20202;-78
2022/11/13 04:53:34;;;;;;;21.30;12.33;;;;;;;10.10;100.00;95970.72;5016774;28;20215;-78
2022/11/13 04:56:01;;;;;;;21.53;13.17;;;;;;;10.12;100.00;95968.78;5019944;28;20694;-79
2022/11/13 04:58:28;;;;;;;23.93;14.50;;;;;;;10.13;100.00;95972.19;5024356;28;20194;-78
2022/11/13 05:00:56;;;;;;;24.20;15.07;;;;;;;9.97;100.00;95961.97;5032467;28;20203;-79
2022/11/13 05:03:23;;;;;;;22.27;14.50;;;;;;;10.06;100.00;95979.09;5023017;28;20207;-79
2022/11/13 05:05:50;;;;;;;24.67;16.67;;;;;;;10.00;100.00;95974.59;5023516;28;20242;-79
2022/11/13 05:08:16;;;;;;;24.00;15.30;;;;;;;10.09;100.00;95976.94;5021990;28;20199;-79
2022/11/13 05:10:44;;;;;;;23.67;15.60;;;;;;;10.05;100.00;95970.47;5039263;28;20614;-81
2022/11/13 05:13:10;;;;;;;27.20;16.97;;;;;;;10.05;100.00;95983.47;5036720;28;20202;-80
2022/11/13 05:15:37;;;;;;;28.27;16.30;;;;;;;10.02;100.00;95978.63;5033302;28;20641;-80
2022/11/13 05:18:05;;;;;;;29.00;17.57;;;;;;;9.99;100.00;95985.97;5044497;28;20202;-81
2022/11/13 05:20:32;;;;;;;30.10;17.17;;;;;;;10.06;100.00;95974.69;5037619;28;20206;-81
2022/11/13 05:22:59;;;;;;;26.70;17.40;;;;;;;10.11;100.00;95981.94;5048073;28;20202;-82
2022/11/13 05:25:26;;;;;;;27.10;16.90;;;;;;;10.08;100.00;95979.69;5044153;28;20231;-82
2022/11/13 05:27:53;;;;;;;26.77;17.70;;;;;;;10.04;100.00;95976.66;5037902;28;20236;-81
2022/11/13 05:30:19;;;;;;;25.00;16.73;;;;;;;9.99;100.00;95984.19;5031375;28;20202;-81
2022/11/13 05:32:46;;;;;;;26.53;16.63;;;;;;;10.02;100.00;95983.81;5036014;28;20220;-82
2022/11/13 05:35:14;;;;;;;28.77;17.87;;;;;;;10.00;100.00;95991.00;5028676;28;20286;-82
2022/11/13 05:37:41;;;;;;;29.70;18.17;;;;;;;9.99;100.00;95978.19;5020662;28;20199;-80
2022/11/13 05:40:09;;;;;;;27.53;17.83;;;;;;;10.05;100.00;95993.84;5022420;28;20198;-79
2022/11/13 05:42:36;;;;;;;29.73;16.57;;;;;;;10.02;100.00;95993.41;5019862;28;20196;-78
2022/11/13 05:45:08;;;;;;;26.23;17.63;;;;;;;10.07;100.00;96001.47;5014225;28;20226;-78
2022/11/13 05:47:35;;;;;;;32.27;18.33;;;;;;;10.10;100.00;96007.09;5011770;28;20199;-77
2022/11/13 05:50:02;;;;;;;28.57;17.53;;;;;;;10.11;100.00;96002.72;5018745;28;20638;-78
2022/11/13 05:52:30;;;;;;;27.73;18.20;;;;;;;10.11;100.00;95995.72;5025274;28;20201;-78
2022/11/13 05:54:57;;;;;;;32.13;18.33;;;;;;;10.10;100.00;95995.94;5021743;28;20199;-83
2022/11/13 05:57:24;;;;;;;28.43;17.80;;;;;;;10.06;100.00;96008.47;5039946;28;20205;-81
2022/11/13 05:59:51;;;;;;;29.37;17.63;;;;;;;10.12;100.00;96005.16;5021700;28;20206;-77
2022/11/13 06:02:17;;;;;;;27.97;17.50;;;;;;;10.15;100.00;96010.00;5020701;28;20202;-78
2022/11/13 06:04:44;;;;;;;24.40;16.47;;;;;;;10.18;100.00;96006.25;5016857;28;20234;-78
2022/11/13 06:07:11;;;;;;;27.90;16.60;;;;;;;10.19;100.00;96005.22;5018091;28;20210;-78
2022/11/13 06:09:40;;;;;;;28.13;17.30;;;;;;;10.12;100.00;95999.94;5017642;28;20191;-79
2022/11/13 06:12:07;;;;;;;30.67;18.83;;;;;;;10.20;100.00;96010.25;5018426;28;20195;-79
2022/11/13 06:14:34;;;;;;;29.53;17.60;;;;;;;10.19;100.00;96006.03;5022238;28;20203;-76
2022/11/13 06:17:01;;;;;;;31.80;18.53;;;;;;;10.26;100.00;96013.91;5023343;28;20202;-77
2022/11/13 06:19:28;;;;;;;29.00;17.53;;;;;;;10.27;100.00;96018.16;5020015;28;20191;-77
2022/11/13 06:21:55;;;;;;;28.70;18.07;;;;;;;10.21;100.00;96013.66;5020990;28;20788;-77
2022/11/13 06:24:22;;;;;;;27.40;17.43;;;;;;;10.19;100.00;96019.03;5023010;28;20195;-78
2022/11/13 06:26:50;;;;;;;30.57;17.53;;;;;;;10.18;100.00;96014.03;5020701;28;20662;-78
2022/11/13 06:29:17;;;;;;;31.40;18.03;;;;;;;10.24;100.00;96016.69;5017999;28;20317;-79
2022/11/13 06:31:43;;;;;;;31.43;18.63;;;;;;;10.34;100.00;96020.78;5024907;28;20210;-78
2022/11/13 06:34:11;;;;;;;29.33;17.77;;;;;;;10.39;100.00;96021.06;5038797;28;20198;-83
2022/11/13 06:36:38;;;;;;;23.77;16.10;;;;;;;10.37;100.00;96026.44;5038584;28;20198;-83
2022/11/13 06:39:07;;;;;;;25.50;16.43;;;;;;;10.41;100.00;96017.31;5039279;28;20194;-82
2022/11/13 06:41:34;;;;;;;26.17;16.30;;;;;;;10.38;100.00;96015.06;5033092;28;20229;-82
2022/11/13 06:44:02;;;;;;;32.77;16.67;;;;;;;10.37;100.00;96015.25;5038947;28;20199;-83
2022/11/13 06:46:29;;;;;;;28.17;16.43;;;;;;;10.35;100.00;96012.84;5030642;28;20598;-82
2022/11/13 06:48:57;;;;;;;26.30;16.30;;;;;;;10.35;100.00;96014.63;5027564;28;20202;-81
2022/11/13 06:51:25;;;;;;;34.13;16.10;;;;;;;10.40;100.00;96018.28;5038858;28;20272;-81
2022/11/13 06:53:52;;;;;;;28.60;16.60;;;;;;;10.43;100.00;96006.72;5042607;28;20254;-82
2022/11/13 06:56:19;;;;;;;27.43;17.03;;;;;;;10.54;100.00;96012.25;5030850;28;20210;-84
2022/11/13 06:58:46;;;;;;;30.30;17.87;;;;;;;10.41;100.00;96001.72;5039478;28;20202;-82
2022/11/13 07:01:16;;;;;;;28.87;17.10;;;;;;;10.56;100.00;96020.66;5039865;28;20207;-81
2022/11/13 07:03:44;;;;;;;28.07;18.10;;;;;;;10.59;100.00;96012.47;5039580;28;20194;-81
2022/11/13 07:06:13;;;;;;;26.77;17.23;;;;;;;10.58;100.00;96017.88;5035435;28;20202;-83
2022/11/13 07:08:40;;;;;;;27.47;17.53;;;;;;;10.61;100.00;96014.91;5040304;28;20199;-84
2022/11/13 07:11:07;;;;;;;26.57;17.03;;;;;;;10.56;100.00;96009.47;5032558;28;20206;-84
2022/11/13 07:13:34;;;;;;;25.93;16.60;;;;;;;10.62;100.00;96026.94;5028053;28;20191;-77
2022/11/13 07:16:03;;;;;;;34.30;16.57;;;;;;;10.54;100.00;96014.03;5024412;28;20929;-79
2022/11/13 07:18:31;;;;;;;33.77;17.80;;;;;;;10.68;100.00;96026.97;5023315;28;20253;-78
2022/11/13 07:20:58;;;;;;;28.63;16.87;;;;;;;10.70;100.00;96024.22;5026247;28;20559;-81
2022/11/13 07:23:25;;;;;;;27.27;17.07;;;;;;;10.76;100.00;96026.09;5030390;28;20210;-81
2022/11/13 07:25:54;;;;;;;30.67;18.20;;;;;;;10.78;100.00;96024.09;5040884;28;20601;-81
2022/11/13 07:28:22;;;;;;;27.10;17.30;;;;;;;10.84;100.00;96025.94;5034304;28;20226;-78
2022/11/13 07:30:48;;;;;;;29.47;17.47;;;;;;;10.77;100.00;96030.28;5037015;28;20665;-79
2022/11/13 07:33:16;;;;;;;26.80;16.50;;;;;;;10.74;100.00;96018.44;5031795;28;20199;-77
2022/11/13 07:35:44;;;;;;;26.43;16.67;;;;;;;10.73;100.00;96021.25;5021836;28;20207;-79
2022/11/13 07:38:11;;;;;;;28.57;17.60;;;;;;;10.81;100.00;96021.13;5032361;28;20233;-80
2022/11/13 07:40:37;;;;;;;30.37;17.33;;;;;;;10.95;100.00;96024.66;5038656;28;20217;-79
2022/11/13 07:43:04;;;;;;;28.10;17.40;;;;;;;10.98;100.00;96027.69;5035237;28;20187;-76
2022/11/13 07:45:31;;;;;;;30.00;17.30;;;;;;;10.94;100.00;96023.06;5017356;28;20313;-76
2022/11/13 07:47:59;;;;;;;28.90;16.77;;;;;;;10.97;100.00;96028.66;5031465;28;20198;-81
2022/11/13 07:50:26;;;;;;;28.70;16.77;;;;;;;11.04;100.00;96033.94;5040167;28;20206;-82
2022/11/13 07:52:57;;;;;;;33.23;18.33;;;;;;;11.02;100.00;96028.13;5034167;28;20217;-82
2022/11/13 07:55:24;;;;;;;32.60;18.43;;;;;;;11.01;100.00;96027.31;5035820;28;20217;-82
2022/11/13 07:57:51;;;;;;;31.30;18.00;;;;;;;10.91;100.00;96031.22;5034312;28;20193;-82
2022/11/13 08:00:18;;;;;;;29.97;18.00;;;;;;;10.92;100.00;96027.63;5037203;28;20202;-81
2022/11/13 08:02:46;;;;;;;25.70;15.90;;;;;;;11.01;100.00;96029.91;5022518;28;20228;-75
2022/11/13 08:05:14;;;;;;;26.90;16.83;;;;;;;10.99;99.96;96018.09;5017068;28;20281;-76
2022/11/13 08:07:40;;;;;;;27.30;17.13;;;;;;;11.09;100.00;96031.56;5011504;28;20191;-77
2022/11/13 08:10:10;;;;;;;31.53;17.43;;;;;;;11.17;100.00;96026.22;5020413;28;20201;-76
2022/11/13 08:12:36;;;;;;;28.27;17.23;;;;;;;11.12;99.77;96033.81;5014903;28;20204;-76
2022/11/13 08:15:04;;;;;;;27.07;17.50;;;;;;;11.16;99.82;96017.66;5016096;28;20202;-78
2022/11/13 08:17:31;;;;;;;29.33;17.30;;;;;;;11.17;99.16;96021.84;5016737;28;20203;-77
2022/11/13 08:19:57;;;;;;;29.33;17.30;;;;;;;11.25;98.69;96029.53;5019627;28;20230;-77
2022/11/13 08:22:24;;;;;;;29.13;16.67;;;;;;;11.23;98.99;96028.09;5022023;28;20199;-77
2022/11/13 08:24:52;;;;;;;31.17;17.47;;;;;;;11.32;98.54;96029.56;5015904;28;20199;-77
2022/11/13 08:27:21;;;;;;;27.50;17.47;;;;;;;11.35;98.06;96032.63;5019489;28;20222;-76
2022/11/13 08:29:48;;;;;;;26.87;16.73;;;;;;;11.44;97.48;96035.06;5017873;28;20203;-76
2022/11/13 08:32:15;;;;;;;26.70;16.00;;;;;;;11.23;97.64;96021.09;5029193;28;20638;-83
2022/11/13 08:34:42;;;;;;;28.10;17.47;;;;;;;11.40;98.08;96035.44;5045451;28;20202;-78
2022/11/13 08:37:09;;;;;;;28.37;18.30;;;;;;;11.41;98.85;96033.66;5036001;28;20257;-80
2022/11/13 08:39:36;;;;;;;29.20;17.87;;;;;;;11.54;99.12;96030.34;5028703;28;20276;-79
2022/11/13 08:42:03;;;;;;;29.67;18.07;;;;;;;11.60;96.86;96025.16;5032997;28;20214;-78
2022/11/13 08:44:31;;;;;;;28.27;18.00;;;;;;;11.66;97.39;96031.44;5035172;28;20194;-78
2022/11/13 08:46:58;;;;;;;31.03;18.67;;;;;;;11.58;97.43;96041.97;5038272;28;20214;-78
2022/11/13 08:49:25;;;;;;;29.83;17.63;;;;;;;11.63;97.59;96050.06;5029011;28;20199;-77
2022/11/13 08:51:52;;;;;;;27.97;17.53;;;;;;;11.65;97.22;96046.25;5035786;28;20206;-78
2022/11/13 08:54:19;;;;;;;31.40;18.57;;;;;;;11.75;97.13;96046.75;5034404;28;20199;-78
2022/11/13 08:56:47;;;;;;;30.03;18.77;;;;;;;11.74;96.87;96052.16;5032827;28;20218;-78
2022/11/13 08:59:14;;;;;;;30.37;19.37;;;;;;;11.79;96.35;96063.63;5032827;28;20281;-77
2022/11/13 09:01:43;;;;;;;27.73;18.57;;;;;;;11.82;96.21;96052.00;5026914;28;20199;-77
2022/11/13 09:04:10;;;;;;;28.33;18.57;;;;;;;11.83;96.30;96058.84;5031552;28;20222;-77
2022/11/13 09:06:37;;;;;;;25.93;18.37;;;;;;;11.78;95.62;96054.19;5043377;28;20218;-76
2022/11/13 09:09:05;;;;;;;31.20;19.60;;;;;;;11.82;96.48;96052.00;5023851;28;20672;-76
2022/11/13 09:11:32;;;;;;;29.50;19.27;;;;;;;11.86;96.72;96048.81;5020512;28;20285;-76
2022/11/13 09:13:59;;;;;;;28.43;18.20;;;;;;;11.89;96.05;96053.66;5020054;28;20210;-78
2022/11/13 09:16:26;;;;;;;27.57;18.37;;;;;;;11.91;95.27;96054.28;5033774;28;21286;-78
2022/11/13 09:18:54;;;;;;;29.07;18.47;;;;;;;11.98;94.91;96051.69;5023035;28;21575;-78
2022/11/13 09:21:21;;;;;;;30.17;19.70;;;;;;;12.04;94.40;96053.53;5032825;28;20665;-78
2022/11/13 09:23:47;;;;;;;29.53;19.27;;;;;;;12.11;95.19;96048.38;5033929;28;20556;-77
2022/11/13 09:26:14;;;;;;;28.70;19.27;;;;;;;12.32;93.83;96050.88;5030792;28;20242;-78
2022/11/13 09:28:41;;;;;;;28.20;19.03;;;;;;;13.10;92.74;96044.31;5033694;28;20198;-77
2022/11/13 09:31:08;;;;;;;29.17;19.37;;;;;;;13.93;89.03;96054.16;5033584;28;20578;-78
2022/11/13 09:33:35;;;;;;;27.47;18.07;;;;;;;14.60;84.78;96038.88;5039053;28;20213;-77
2022/11/13 09:36:11;;;;;;;26.43;17.33;;;;;;;14.87;83.06;96043.97;5029865;28;20200;-77
2022/11/13 09:38:38;;;;;;;24.73;17.53;;;;;;;14.76;82.93;96046.25;5023733;28;20229;-79
2022/11/13 09:41:09;;;;;;;27.13;18.73;;;;;;;14.53;83.17;96048.56;5027759;28;20206;-79
2022/11/13 09:43:41;;;;;;;28.80;18.40;;;;;;;14.47;83.74;96033.72;5025612;28;20289;-79
2022/11/13 09:46:15;;;;;;;26.50;17.83;;;;;;;14.28;83.46;96026.72;5032393;28;20210;-77
2022/11/13 09:48:46;;;;;;;23.97;17.07;;;;;;;14.22;84.38;96030.16;5019330;28;20265;-76
2022/11/13 09:51:18;;;;;;;24.17;17.17;;;;;;;14.45;84.34;96019.22;5021761;28;20547;-76
2022/11/13 09:53:45;;;;;;;25.57;17.17;;;;;;;14.52;82.78;96022.59;5015702;28;20195;-73
2022/11/13 09:56:34;;;;;;;28.00;18.50;;;;;;;14.47;83.23;96019.81;5018723;28;20195;-74
2022/11/13 09:59:07;;;;;;;27.13;18.63;;;;;;;14.41;84.13;96031.09;5012732;28;20747;-74
2022/11/13 10:01:51;;;;;;;27.63;17.87;;;;;;;14.31;82.68;96022.88;5018167;28;20187;-76
2022/11/13 10:04:26;;;;;;;26.00;17.40;;;;;;;14.13;83.96;96023.53;5020450;28;20234;-77
2022/11/13 10:07:11;;;;;;;24.13;17.13;;;;;;;13.86;85.23;96021.97;5019124;28;20241;-73
2022/11/13 10:09:53;;;;;;;27.40;17.97;;;;;;;13.77;85.95;96021.41;5019471;28;20195;-72
2022/11/13 10:12:21;;;;;;;23.70;17.67;;;;;;;13.57;85.57;96023.22;5017882;28;20685;-74
2022/11/13 10:14:51;;;;;;;25.33;18.43;;;;;;;13.24;87.26;96017.22;5014936;28;20214;-77
2022/11/13 10:17:24;;;;;;;25.50;18.13;;;;;;;13.15;86.81;96003.56;5018295;28;20198;-78
2022/11/13 10:19:57;;;;;;;27.23;19.20;;;;;;;13.20;87.55;96010.78;5023622;28;20206;-76
2022/11/13 10:22:30;;;;;;;28.93;19.13;;;;;;;13.13;87.90;96005.56;5022130;28;20288;-77
2022/11/13 10:25:03;;;;;;;31.37;19.57;;;;;;;13.07;88.51;96001.13;5016017;28;20709;-74
2022/11/13 10:27:29;;;;;;;29.27;19.47;;;;;;;13.08;88.23;96006.16;5016723;28;20209;-73
2022/11/13 10:29:57;;;;;;;25.27;18.50;;;;;;;13.19;87.75;96006.59;5016693;28;20204;-73
2022/11/13 10:32:26;;;;;;;28.90;20.30;;;;;;;13.18;100.00;95982.28;5020340;28;20233;-73
2022/11/13 10:35:05;;;;;;;26.07;17.87;;;;;;;13.30;91.79;96005.97;5019524;28;20222;-74
2022/11/13 10:37:53;;;;;;;26.80;18.93;;;;;;;13.06;88.60;95995.09;5016640;28;20226;-75
2022/11/13 10:40:25;;;;;;;29.47;19.53;;;;;;;13.16;90.48;95999.16;5023373;28;20195;-75
2022/11/13 10:42:52;;;;;;;24.90;18.03;;;;;;;13.11;91.31;95993.69;5018620;28;20260;-73
2022/11/13 10:45:22;;;;;;;27.50;17.93;;;;;;;13.12;87.94;95990.09;5019489;28;20633;-75
2022/11/13 10:47:51;;;;;;;25.63;17.17;;;;;;;13.03;87.27;95989.47;5021705;28;20581;-75
2022/11/13 10:50:23;;;;;;;28.27;18.37;;;;;;;13.05;88.54;95984.84;5017227;28;20233;-73
2022/11/13 10:52:54;;;;;;;25.87;17.53;;;;;;;12.94;88.22;95988.03;5016812;28;20198;-74
2022/11/13 10:55:25;;;;;;;27.47;18.60;;;;;;;13.01;88.59;95973.22;5021258;28;20188;-74
2022/11/13 10:57:57;;;;;;;27.07;17.97;;;;;;;13.01;87.32;95975.81;5017734;28;20600;-75
2022/11/13 11:00:29;;;;;;;25.23;18.30;;;;;;;13.15;87.49;95981.88;5017539;28;20211;-74
2022/11/13 11:02:57;;;;;;;27.73;18.67;;;;;;;13.04;87.09;95976.19;5014514;28;20298;-75
2022/11/13 11:05:25;;;;;;;25.60;18.77;;;;;;;12.97;87.25;95977.22;5017161;28;20238;-74
2022/11/13 11:07:55;;;;;;;27.80;18.73;;;;;;;12.83;87.60;95973.78;5018983;28;20223;-74
2022/11/13 11:10:29;;;;;;;29.80;19.40;;;;;;;12.90;88.73;95971.19;5017476;28;20191;-75
2022/11/13 11:13:00;;;;;;;27.53;18.67;;;;;;;12.93;87.16;95971.56;5015014;28;20206;-76
2022/11/13 11:15:36;;;;;;;28.47;18.83;;;;;;;13.02;87.39;95969.56;5018160;28;20198;-76
2022/11/13 11:18:06;;;;;;;27.47;19.60;;;;;;;12.99;87.94;95962.97;5017224;28;20198;-74
2022/11/13 11:20:43;;;;;;;28.97;18.60;;;;;;;12.87;87.03;95961.94;5018456;28;20253;-76
2022/11/13 11:23:21;;;;;;;26.53;18.13;;;;;;;12.82;87.64;95946.09;5018294;28;20193;-74
2022/11/13 11:25:54;;;;;;;29.80;19.60;;;;;;;12.94;88.40;95962.75;5014472;28;20258;-76